Angler Guide Weather for Koosharem -
Koosharem, Utah Current Weather Conditions
Enter your "Place, State", US Zip Code or ICAO:  
NowCast ZoneCast Warnings/Advisories Hourly Track Special Radar
Koosharem, Utah (84744)  Lat: 38.51N, Lon: 111.88W
Wx Zone: UTZ017 ICAO Used: KBCE
Current Conditions at nearby:
Bryce Canyon, Bryce Canyon Airport, UT
Updated: UNKNOWN
Sun & Moon Information:
Mostly Cloudy
Mostly Cloudy
Temp: 43°F
Humidity: 93%
Wind Speed: W 8.1 MPH (7 KT)
Barometer: 30.30 in.
Dewpoint: 41°F
Heat Index: 43°F
Wind Chill: 38°F
Civil Twilight: 6:23 AM MDT
Moonrise: 1:22 AM MDT Moon Phase:
Waning Crescent Moon
Waning Crescent Moon
Moonset: 3:53 PM MDT
Sunrise: 6:50 AM MDT
Sunset: 8:06 PM MDT
Civil Twilight: 8:33 PM MDT
Forecast for Koosharem, UT:
(Forecast based on TAF for )
1135 AM MDT MON NOV 06 2006
  
AFTERNOONEVENINGOVERNIGHTMORNING
PARTLY CLOUDYPARTLY CLOUDYPARTLY CLOUDYPARTLY CLOUDY
Partly
Cloudy
Partly
Cloudy
Partly
Cloudy
Partly
Cloudy
TAF based forecast:
Dated: 1135 AM MDT MON NOV 06 2006
Afternoon...Partly cloudy with winds from the north west at 7 mph.
Evening...Partly cloudy with winds from the north west at 7 mph.
Overnight...Partly cloudy with winds from the north west at 7 mph.
Morning...Partly cloudy with winds from the north west at 7 mph.
Original Encoded TAF:
Dated: 1135 AM MDT MON NOV 06 2006
2006/11/06 17:35
KBCE 061735Z 061818 30006KT P6SM SCT250=




Powered by Angler Guide.com
Copyright 2007, all rights reserved.